Time;durP1;ratioP1;P1;durP2;ratioP2;P2;SDS_P1;SDS_P2;PMS_P1;PMS_P2;Temp;Humidity;BMP_temperature;BMP_pressure;BME280_temperature;BME280_humidity;BME280_pressure;Samples;Min_cycle;Max_cycle;Signal;HPM_P1;HPM_P2
2023/02/12 00:00:42;;;;;;;39.88;18.00;;;;;;;-146.25;100.00;52416.84;2080757;28;28216;-77
2023/02/12 00:01:44;;;;;;;35.42;17.63;;;;;;;-146.25;100.00;52420.91;2088045;28;37115;-77
2023/02/12 00:02:45;;;;;;;37.97;17.42;;;;;;;-146.25;100.00;52437.13;2089188;28;37240;-77
2023/02/12 00:03:47;;;;;;;42.20;17.88;;;;;;;-146.25;100.00;52457.41;2088840;28;40866;-77
2023/02/12 00:04:49;;;;;;;36.67;16.88;;;;;;;-146.25;100.00;52396.59;2089837;28;20042;-77
2023/02/12 00:05:51;;;;;;;36.42;17.27;;;;;;;-146.25;100.00;52433.06;2088657;28;39962;-77
2023/02/12 00:06:53;;;;;;;41.17;18.75;;;;;;;-146.25;100.00;52441.19;2088384;28;35597;-77
2023/02/12 00:07:55;;;;;;;38.90;17.90;;;;;;;-146.25;100.00;52416.84;2088421;28;37231;-77
2023/02/12 00:09:00;;;;;;;39.78;18.60;;;;;;;-146.25;100.00;52424.97;2088359;28;38286;-77
2023/02/12 00:10:04;;;;;;;36.35;18.85;;;;;;;-146.25;100.00;52445.25;2088798;28;39072;-77
2023/02/12 00:11:13;;;;;;;35.40;17.98;;;;;;;-146.25;100.00;52422.94;2088351;28;37575;-77
2023/02/12 00:12:18;;;;;;;36.65;18.67;;;;;;;-146.25;100.00;52412.81;2080149;28;33227;-77
2023/02/12 00:13:20;;;;;;;40.58;19.20;;;;;;;-146.25;100.00;52420.91;2073493;28;38167;-76
2023/02/12 00:14:22;;;;;;;44.50;18.60;;;;;;;-146.25;100.00;52420.91;2071604;28;40900;-76
2023/02/12 00:15:23;;;;;;;41.30;18.20;;;;;;;-146.25;100.00;52431.06;2079831;28;38285;-76
2023/02/12 00:16:28;;;;;;;37.67;18.33;;;;;;;-146.25;100.00;52443.22;2088486;28;38584;-76
2023/02/12 00:17:29;;;;;;;37.47;18.52;;;;;;;-146.25;100.00;52451.31;2079982;28;35560;-77
2023/02/12 00:18:31;;;;;;;42.22;19.00;;;;;;;-146.25;100.00;52445.25;2080021;28;37561;-77
2023/02/12 00:19:33;;;;;;;31.92;17.98;;;;;;;-146.25;100.00;52408.75;2088661;28;40949;-77
2023/02/12 00:20:37;;;;;;;35.00;17.95;;;;;;;-146.25;100.00;52451.31;2089339;28;20868;-76
2023/02/12 00:21:40;;;;;;;41.03;18.85;;;;;;;-146.25;100.00;52412.81;2089023;28;20044;-76
2023/02/12 00:22:41;;;;;;;34.47;18.13;;;;;;;-146.25;100.00;52447.28;2088475;28;37571;-77
2023/02/12 00:23:43;;;;;;;40.15;19.67;;;;;;;-146.25;100.00;52435.09;2088609;28;38921;-76
2023/02/12 00:24:45;;;;;;;39.85;19.00;;;;;;;-146.25;100.00;52429.03;2088673;28;41227;-76
2023/02/12 00:25:47;;;;;;;41.85;19.83;;;;;;;-146.25;100.00;52461.47;2089181;28;20838;-76
2023/02/12 00:26:49;;;;;;;42.38;18.42;;;;;;;-146.25;100.00;52433.06;2088550;28;40307;-76
2023/02/12 00:27:51;;;;;;;42.90;18.67;;;;;;;-146.25;100.00;52424.97;2089586;28;20853;-76
2023/02/12 00:28:53;;;;;;;36.90;17.75;;;;;;;-146.25;100.00;52459.44;2088093;28;37524;-76
2023/02/12 00:29:56;;;;;;;38.95;17.75;;;;;;;-146.25;100.00;52427.00;2080739;28;20846;-78
2023/02/12 00:31:12;;;;;;;38.03;17.60;;;;;;;-146.25;100.00;52390.50;2080668;28;20708;-75
2023/02/12 00:32:18;;;;;;;36.40;17.85;;;;;;;-146.25;100.00;52412.81;2085854;28;33318;-76
2023/02/12 00:33:20;;;;;;;34.28;17.42;;;;;;;-146.25;100.00;52461.47;2081506;28;29084;-76
2023/02/12 00:34:24;;;;;;;37.55;18.30;;;;;;;-146.25;100.00;52449.31;2079939;28;34317;-76
2023/02/12 00:35:25;;;;;;;32.72;18.17;;;;;;;-146.25;100.00;52443.22;2071815;28;36744;-76
2023/02/12 00:36:30;;;;;;;32.08;17.98;;;;;;;-146.25;100.00;52414.84;2072183;28;20038;-76
2023/02/12 00:37:33;;;;;;;32.92;17.70;;;;;;;-146.25;100.00;52453.34;2072599;28;20090;-76
2023/02/12 00:38:35;;;;;;;29.45;17.10;;;;;;;-146.25;100.00;52439.16;2079418;28;32804;-76
2023/02/12 00:39:37;;;;;;;29.17;16.83;;;;;;;-146.25;100.00;52449.31;2087836;28;20930;-76
2023/02/12 00:40:38;;;;;;;37.35;18.33;;;;;;;-146.25;100.00;52412.81;2088810;28;31005;-75
2023/02/12 00:41:40;;;;;;;31.85;16.70;;;;;;;-146.25;100.00;52437.13;2088805;28;28497;-76
2023/02/12 00:42:42;;;;;;;32.08;17.50;;;;;;;-146.25;100.00;52437.13;2089463;28;25304;-75
2023/02/12 00:43:44;;;;;;;36.15;18.55;;;;;;;-146.25;100.00;52451.31;2088325;28;35702;-76
2023/02/12 00:44:46;;;;;;;33.30;17.02;;;;;;;-146.25;100.00;52412.81;2089704;28;20034;-75
2023/02/12 00:45:50;;;;;;;31.70;17.02;;;;;;;-146.25;100.00;52422.94;2080132;28;20939;-77
2023/02/12 00:46:55;;;;;;;27.70;17.17;;;;;;;-146.25;100.00;52453.34;2081266;28;20081;-75
2023/02/12 00:47:57;;;;;;;37.53;18.35;;;;;;;-146.25;100.00;52410.78;2079809;28;25645;-78
2023/02/12 00:48:59;;;;;;;31.60;16.63;;;;;;;-146.25;100.00;52465.53;2072381;28;32045;-76
2023/02/12 00:50:01;;;;;;;30.58;16.35;;;;;;;-146.25;100.00;52429.03;2080235;28;20054;-76
2023/02/12 00:51:03;;;;;;;31.48;17.60;;;;;;;-146.25;100.00;52433.06;2088427;28;31570;-76
2023/02/12 00:52:05;;;;;;;31.35;16.80;;;;;;;-146.25;100.00;52429.03;2087112;28;36784;-76
2023/02/12 00:53:07;;;;;;;33.67;17.33;;;;;;;-146.25;100.00;52445.25;2079896;28;33377;-76
2023/02/12 00:54:08;;;;;;;33.90;17.33;;;;;;;-146.25;100.00;52439.16;2079693;28;32674;-76
2023/02/12 00:55:10;;;;;;;31.60;17.83;;;;;;;-146.25;100.00;52453.34;2088515;28;37085;-78
2023/02/12 00:56:12;;;;;;;33.70;17.48;;;;;;;-146.25;100.00;52437.13;2088857;28;24988;-76
2023/02/12 00:57:14;;;;;;;38.55;17.77;;;;;;;-146.25;100.00;52437.13;2088652;28;20037;-76
2023/02/12 00:58:15;;;;;;;37.55;18.10;;;;;;;-146.25;100.00;52441.19;2088734;28;20038;-76
2023/02/12 00:59:19;;;;;;;30.35;15.57;;;;;;;-146.25;100.00;52449.31;2088030;28;29614;-76
2023/02/12 01:00:21;;;;;;;34.30;16.88;;;;;;;-146.25;100.00;52429.03;2087646;28;33293;-76
2023/02/12 01:01:25;;;;;;;26.13;16.63;;;;;;;-146.25;100.00;52396.59;2088695;28;38928;-76
2023/02/12 01:02:27;;;;;;;26.55;16.73;;;;;;;-146.25;100.00;52451.31;2079539;28;34070;-76
2023/02/12 01:03:28;;;;;;;32.90;17.45;;;;;;;-146.25;100.00;52441.19;2079935;28;29088;-76
2023/02/12 01:04:32;;;;;;;34.28;16.98;;;;;;;-146.25;100.00;52463.50;2088949;28;20056;-76
2023/02/12 01:05:34;;;;;;;32.63;17.42;;;;;;;-146.25;100.00;52435.09;2080327;28;20927;-76
2023/02/12 01:06:36;;;;;;;39.03;16.70;;;;;;;-146.25;100.00;52457.41;2071260;28;32330;-76
2023/02/12 01:07:39;;;;;;;40.42;18.40;;;;;;;-146.25;100.00;52408.75;2080271;28;32061;-76
2023/02/12 01:08:41;;;;;;;35.75;18.00;;;;;;;-146.25;100.00;52445.25;2087974;28;24624;-76
2023/02/12 01:09:42;;;;;;;34.03;17.42;;;;;;;-146.25;100.00;52445.25;2087833;28;41080;-76
2023/02/12 01:10:44;;;;;;;30.85;17.98;;;;;;;-146.25;100.00;52457.41;2088726;28;35863;-76
2023/02/12 01:11:48;;;;;;;38.22;19.35;;;;;;;-146.25;100.00;52392.53;2080075;28;32767;-76
2023/02/12 01:12:50;;;;;;;39.58;19.40;;;;;;;-146.25;100.00;52427.00;2080081;28;20176;-76
2023/02/12 01:13:55;;;;;;;35.58;19.45;;;;;;;-146.25;100.00;52453.34;2088988;28;20041;-76
2023/02/12 01:14:57;;;;;;;40.42;20.02;;;;;;;-146.25;100.00;52424.97;2079270;28;36074;-76
2023/02/12 01:16:14;;;;;;;41.50;18.73;;;;;;;-146.25;100.00;52485.81;2080114;28;20080;-76
2023/02/12 01:17:15;;;;;;;39.35;18.90;;;;;;;-146.25;100.00;52431.06;2085911;28;29838;-76
2023/02/12 01:18:20;;;;;;;38.78;18.67;;;;;;;-146.25;100.00;52431.06;2080829;28;20109;-76
2023/02/12 01:19:24;;;;;;;45.53;19.98;;;;;;;-146.25;100.00;52443.22;2088318;28;39141;-76
2023/02/12 01:20:26;;;;;;;41.47;19.55;;;;;;;-146.25;100.00;52435.09;2089224;28;20049;-76
2023/02/12 01:21:32;;;;;;;40.97;19.60;;;;;;;-146.25;100.00;52410.78;2079152;28;32824;-76
2023/02/12 01:22:36;;;;;;;46.92;20.10;;;;;;;-146.25;100.00;52433.06;2080215;28;34160;-76
2023/02/12 01:23:40;;;;;;;40.97;20.92;;;;;;;-146.25;100.00;52439.16;2088365;28;20935;-76
2023/02/12 01:24:41;;;;;;;37.88;19.90;;;;;;;-146.25;100.00;52457.41;2089254;28;20045;-76
2023/02/12 01:25:43;;;;;;;41.28;19.25;;;;;;;-146.25;100.00;52449.31;2087574;28;39540;-76
2023/02/12 01:26:47;;;;;;;40.80;20.65;;;;;;;-146.25;100.00;52475.66;2087811;28;37822;-76
2023/02/12 01:27:52;;;;;;;38.38;19.77;;;;;;;-146.25;100.00;52469.56;2079382;28;30780;-76
2023/02/12 01:29:01;;;;;;;47.65;21.10;;;;;;;-146.25;100.00;52449.31;2072608;28;20027;-76
2023/02/12 01:30:09;;;;;;;44.33;20.38;;;;;;;-146.25;100.00;52420.91;2081183;28;39035;-76
2023/02/12 01:31:15;;;;;;;47.65;21.55;;;;;;;-146.25;100.00;52443.22;2088199;28;28308;-77
2023/02/12 01:32:17;;;;;;;47.80;21.48;;;;;;;-146.25;100.00;52408.75;2079887;28;29726;-76
2023/02/12 01:33:19;;;;;;;41.80;21.20;;;;;;;-146.25;100.00;52463.50;2072275;28;20102;-76
2023/02/12 01:34:21;;;;;;;39.75;22.00;;;;;;;-146.25;100.00;52443.22;2080411;28;31100;-76
2023/02/12 01:35:23;;;;;;;41.88;21.35;;;;;;;-146.25;100.00;52477.69;2087542;28;31223;-76
2023/02/12 01:36:27;;;;;;;48.50;20.58;;;;;;;-146.25;100.00;52437.13;2087548;28;36660;-76
2023/02/12 01:37:29;;;;;;;40.83;20.80;;;;;;;-146.25;100.00;52443.22;2071637;28;20043;-75
2023/02/12 01:38:30;;;;;;;45.95;22.27;;;;;;;-146.25;100.00;52437.13;2072820;28;20085;-76
2023/02/12 01:39:33;;;;;;;45.67;21.38;;;;;;;-146.25;100.00;52465.53;2079532;28;29828;-75
2023/02/12 01:40:36;;;;;;;46.00;20.98;;;;;;;-146.25;100.00;52433.06;2071744;28;20923;-75
2023/02/12 01:41:43;;;;;;;40.47;19.33;;;;;;;-146.25;100.00;52451.31;2079234;28;36205;-76
2023/02/12 01:42:45;;;;;;;46.70;21.48;;;;;;;-146.25;100.00;52443.22;2080074;28;20045;-75
2023/02/12 01:44:04;;;;;;;42.58;20.90;;;;;;;-146.25;100.00;52418.88;2080171;28;20045;-75
2023/02/12 01:45:11;;;;;;;38.60;19.50;;;;;;;-146.25;100.00;52441.19;2079613;28;32620;-75
2023/02/12 01:46:14;;;;;;;47.25;20.02;;;;;;;-146.25;100.00;52443.22;2080248;28;31895;-76
2023/02/12 01:47:17;;;;;;;43.85;20.70;;;;;;;-146.25;100.00;52416.84;2088634;28;35710;-76
2023/02/12 01:48:24;;;;;;;38.50;19.27;;;;;;;-146.25;100.00;52427.00;2079700;28;21922;-75
2023/02/12 01:49:40;;;;;;;39.75;20.67;;;;;;;-146.25;100.00;52481.75;2081093;28;20883;-76
2023/02/12 01:50:44;;;;;;;45.70;20.85;;;;;;;-146.25;100.00;52445.25;2087478;28;43856;-76
2023/02/12 01:51:52;;;;;;;44.50;20.75;;;;;;;-146.25;100.00;52459.44;2079738;28;20124;-75
2023/02/12 01:52:57;;;;;;;40.65;19.85;;;;;;;-146.25;100.00;52435.09;2080113;28;36234;-76
2023/02/12 01:54:04;;;;;;;46.63;21.42;;;;;;;-146.25;100.00;52443.22;2088229;28;20042;-76
2023/02/12 01:55:10;;;;;;;42.70;19.63;;;;;;;-146.25;100.00;52424.97;2080254;28;20886;-76
2023/02/12 01:56:15;;;;;;;44.50;21.77;;;;;;;-146.25;100.00;52416.84;2073118;28;20039;-76
2023/02/12 01:57:17;;;;;;;37.35;20.83;;;;;;;-146.25;100.00;52449.31;2080754;28;20058;-76
2023/02/12 01:58:19;;;;;;;44.35;21.60;;;;;;;-146.25;100.00;52435.09;2087908;28;20052;-76
2023/02/12 01:59:23;;;;;;;47.30;21.00;;;;;;;-146.25;100.00;52441.19;2088146;28;20148;-76
2023/02/12 02:00:25;;;;;;;38.55;20.80;;;;;;;-146.25;100.00;52453.34;2087849;28;20882;-76
2023/02/12 02:01:31;;;;;;;48.47;22.45;;;;;;;-146.25;100.00;52467.56;2088969;28;20041;-76
2023/02/12 02:02:35;;;;;;;45.65;21.45;;;;;;;-146.25;100.00;52427.00;2088097;28;20049;-76
2023/02/12 02:03:41;;;;;;;49.30;22.17;;;;;;;-146.25;100.00;52443.22;2087911;28;29954;-76
2023/02/12 02:04:48;;;;;;;44.53;21.80;;;;;;;-146.25;100.00;52433.06;2088578;28;32196;-76
2023/02/12 02:05:58;;;;;;;48.65;22.00;;;;;;;-146.25;100.00;52429.03;2087162;28;32913;-76
2023/02/12 02:07:03;;;;;;;41.80;20.75;;;;;;;-146.25;100.00;52433.06;2087576;28;26681;-76
2023/02/12 02:08:05;;;;;;;43.13;20.83;;;;;;;-146.25;100.00;52443.22;2079569;28;27679;-76
2023/02/12 02:09:07;;;;;;;48.58;23.15;;;;;;;-146.25;100.00;52424.97;2071060;28;34823;-76
2023/02/12 02:10:11;;;;;;;48.63;22.33;;;;;;;-146.25;100.00;52433.06;2071473;28;31773;-76
2023/02/12 02:15:16;;;;;;;44.78;21.95;;;;;;;-146.25;100.00;52457.41;2082307;28;20050;-76
2023/02/12 02:16:25;;;;;;;39.78;20.70;;;;;;;-146.25;100.00;52457.41;2088236;28;39869;-76
2023/02/12 02:17:47;;;;;;;41.20;21.02;;;;;;;-146.25;100.00;52453.34;2087697;28;30958;-76
2023/02/12 02:18:59;;;;;;;45.47;20.88;;;;;;;-146.25;100.00;52493.91;2088428;28;20057;-76
2023/02/12 02:20:56;;;;;;;44.88;21.15;;;;;;;-146.25;100.00;52447.28;2089046;28;20026;-76
2023/02/12 02:22:26;;;;;;;45.58;21.15;;;;;;;-146.25;100.00;52414.84;2088452;28;20826;-76
2023/02/12 02:24:09;;;;;;;44.42;21.17;;;;;;;-146.25;100.00;52429.03;2088251;28;21125;-76
2023/02/12 02:25:33;;;;;;;45.83;20.85;;;;;;;-146.25;100.00;52469.56;2087868;28;39837;-76
2023/02/12 02:27:09;;;;;;;47.58;21.52;;;;;;;-146.25;100.00;52431.06;2088201;28;39087;-76
2023/02/12 02:28:41;;;;;;;51.40;21.10;;;;;;;-146.25;100.00;52433.06;2087140;28;40591;-76
2023/02/12 02:30:21;;;;;;;45.33;21.10;;;;;;;-146.25;100.00;52455.38;2088358;28;20787;-76
2023/02/12 02:31:41;;;;;;;53.47;20.20;;;;;;;-146.25;100.00;52441.19;2071290;28;38334;-76
2023/02/12 02:32:57;;;;;;;47.63;20.73;;;;;;;-146.25;100.00;52449.31;2087633;28;37273;-76
2023/02/12 02:34:27;;;;;;;42.47;20.92;;;;;;;-146.25;100.00;52455.38;2087679;28;42828;-77
2023/02/12 02:36:12;;;;;;;51.97;21.20;;;;;;;-146.25;100.00;52429.03;2087804;28;38910;-76
2023/02/12 02:37:26;;;;;;;51.30;20.75;;;;;;;-146.25;100.00;52461.47;2087261;28;39058;-76
2023/02/12 02:38:44;;;;;;;47.97;21.20;;;;;;;-146.25;100.00;52451.31;2079065;28;38775;-76
2023/02/12 02:40:45;;;;;;;49.95;20.48;;;;;;;-146.25;100.00;52451.31;2079096;28;38011;-76
2023/02/12 02:42:13;;;;;;;40.67;18.65;;;;;;;-146.25;100.00;52429.03;2054967;28;42611;-76
2023/02/12 02:43:27;;;;;;;44.70;19.67;;;;;;;-146.25;100.00;52487.81;2087252;28;39366;-76
2023/02/12 02:44:45;;;;;;;49.30;20.25;;;;;;;-146.25;100.00;52418.88;2078928;28;42053;-76
2023/02/12 02:45:58;;;;;;;38.67;19.10;;;;;;;-146.25;100.00;52449.31;2083555;28;37567;-76
2023/02/12 02:47:04;;;;;;;47.25;19.38;;;;;;;-146.25;100.00;52447.28;2087293;28;40103;-77
2023/02/12 02:48:16;;;;;;;43.33;19.30;;;;;;;-146.25;100.00;52467.56;2070418;28;36606;-76
2023/02/12 02:49:31;;;;;;;45.00;20.58;;;;;;;-146.25;100.00;52410.78;2066275;28;41042;-77
2023/02/12 02:50:40;;;;;;;40.10;19.48;;;;;;;-146.25;100.00;52469.56;2073690;28;40136;-77
2023/02/12 02:51:49;;;;;;;49.97;20.00;;;;;;;-146.25;100.00;52461.47;2080949;28;40080;-77
2023/02/12 02:53:03;;;;;;;42.55;20.02;;;;;;;-146.25;100.00;52416.84;2078941;28;38157;-77
2023/02/12 02:54:24;;;;;;;45.55;19.67;;;;;;;-146.25;100.00;52412.81;2073729;28;42034;-77
2023/02/12 02:55:34;;;;;;;53.92;20.55;;;;;;;-146.25;100.00;52429.03;2082254;28;40643;-76
2023/02/12 02:56:41;;;;;;;49.85;21.13;;;;;;;-146.25;100.00;52467.56;2087971;28;40800;-77
2023/02/12 02:58:07;;;;;;;53.85;22.42;;;;;;;-146.25;100.00;52449.31;2087765;28;21483;-76
2023/02/12 02:59:26;;;;;;;40.40;19.85;;;;;;;-146.25;100.00;52465.53;2087458;28;41332;-77
2023/02/12 03:00:41;;;;;;;51.03;20.42;;;;;;;-146.25;100.00;52457.41;2078942;28;20111;-77
2023/02/12 03:01:55;;;;;;;43.85;20.33;;;;;;;-146.25;100.00;52451.31;2072446;28;42726;-77
2023/02/12 03:03:10;;;;;;;40.83;18.90;;;;;;;-146.25;100.00;52424.97;2078604;28;28559;-77
2023/02/12 03:04:34;;;;;;;44.22;19.13;;;;;;;-146.25;100.00;52502.03;2074605;28;39873;-76
2023/02/12 03:05:46;;;;;;;44.22;20.13;;;;;;;-146.25;100.00;52443.22;2084649;28;20041;-77
2023/02/12 03:07:01;;;;;;;47.17;19.98;;;;;;;-146.25;100.00;52424.97;2087408;28;43845;-77
2023/02/12 03:08:15;;;;;;;45.85;19.67;;;;;;;-146.25;100.00;52435.09;2078794;28;41998;-77
2023/02/12 03:09:30;;;;;;;51.63;21.38;;;;;;;-146.25;100.00;52443.22;2064492;28;37965;-77
2023/02/12 03:11:18;;;;;;;48.88;18.90;;;;;;;-146.25;100.00;52455.38;2075973;28;40414;-75
2023/02/12 03:13:13;;;;;;;40.38;19.05;;;;;;;-146.25;100.00;52445.25;2067697;28;37168;-76
2023/02/12 03:14:27;;;;;;;42.70;20.13;;;;;;;-146.25;100.00;52457.41;2062880;28;20035;-76
2023/02/12 03:15:37;;;;;;;51.03;20.10;;;;;;;-146.25;100.00;52461.47;2084642;28;41763;-76
2023/02/12 03:16:58;;;;;;;48.17;19.40;;;;;;;-146.25;100.00;52445.25;2088214;28;36500;-77
2023/02/12 03:18:06;;;;;;;48.63;19.25;;;;;;;-146.25;100.00;52427.00;2079219;28;29394;-76
2023/02/12 03:19:18;;;;;;;43.35;20.02;;;;;;;-146.25;100.00;52420.91;2082683;28;41900;-75
2023/02/12 03:20:30;;;;;;;41.10;18.45;;;;;;;-146.25;100.00;52433.06;2079394;28;38580;-76
2023/02/12 03:21:45;;;;;;;45.53;20.27;;;;;;;-146.25;100.00;52433.06;2081510;28;40252;-76
2023/02/12 03:23:08;;;;;;;43.55;18.90;;;;;;;-146.25;100.00;52441.19;2079373;28;35552;-76
2023/02/12 03:24:34;;;;;;;51.08;20.65;;;;;;;-146.25;100.00;52418.88;2083148;28;42526;-76
2023/02/12 03:26:05;;;;;;;46.78;20.00;;;;;;;-146.25;100.00;52396.59;2079227;28;38382;-76
2023/02/12 03:27:16;;;;;;;50.78;20.70;;;;;;;-146.25;100.00;52416.84;2084568;28;36685;-76
2023/02/12 03:28:27;;;;;;;44.58;19.92;;;;;;;-146.25;100.00;52459.44;2087353;28;39860;-76
2023/02/12 03:29:30;;;;;;;47.72;21.02;;;;;;;-146.25;100.00;52447.28;2079098;28;43182;-76
2023/02/12 03:30:57;;;;;;;51.83;20.27;;;;;;;-146.25;100.00;52445.25;2080892;28;22938;-76
2023/02/12 03:32:05;;;;;;;41.42;19.73;;;;;;;-146.25;100.00;52420.91;2078914;28;38723;-76
2023/02/12 03:33:29;;;;;;;49.97;20.00;;;;;;;-146.25;100.00;52453.34;2082055;28;39993;-76
2023/02/12 03:35:17;;;;;;;42.90;19.77;;;;;;;-146.25;100.00;52465.53;2087554;28;41053;-76
2023/02/12 03:36:27;;;;;;;47.72;19.90;;;;;;;-146.25;100.00;52469.56;2087200;28;37398;-76
2023/02/12 03:37:42;;;;;;;45.97;20.35;;;;;;;-146.25;100.00;52433.06;2078391;28;43736;-76
2023/02/12 03:38:52;;;;;;;38.60;18.58;;;;;;;-146.25;100.00;52384.41;2081244;28;40316;-77
2023/02/12 03:40:17;;;;;;;44.53;19.75;;;;;;;-146.25;100.00;52398.59;2078994;28;39468;-76
2023/02/12 03:41:36;;;;;;;52.05;20.88;;;;;;;-146.25;100.00;52457.41;2084199;28;20072;-76
2023/02/12 03:43:06;;;;;;;46.80;21.90;;;;;;;-146.25;100.00;52441.19;2088476;28;20049;-76
2023/02/12 03:44:37;;;;;;;53.17;20.98;;;;;;;-146.25;100.00;52398.59;2087359;28;37945;-76
2023/02/12 03:45:51;;;;;;;50.55;20.45;;;;;;;-146.25;100.00;52437.13;2078727;28;40977;-76
2023/02/12 03:47:12;;;;;;;50.72;21.02;;;;;;;-146.25;100.00;52457.41;2084440;28;38698;-76
2023/02/12 03:48:27;;;;;;;54.65;21.70;;;;;;;-146.25;100.00;52467.56;2088376;28;42602;-77
2023/02/12 03:49:44;;;;;;;64.28;21.60;;;;;;;-146.25;100.00;52473.63;2088442;28;20779;-76
2023/02/12 03:51:01;;;;;;;52.38;20.95;;;;;;;-146.25;100.00;52422.94;2086730;28;42573;-76
2023/02/12 03:52:03;;;;;;;53.75;21.75;;;;;;;-146.25;100.00;52435.09;2087669;28;20040;-75
2023/02/12 03:53:06;;;;;;;57.05;22.13;;;;;;;-146.25;100.00;52457.41;2087772;28;41887;-76
2023/02/12 03:54:11;;;;;;;60.92;22.88;;;;;;;-146.25;100.00;52449.31;2087134;28;35940;-76
2023/02/12 03:55:14;;;;;;;59.50;22.52;;;;;;;-146.25;100.00;52431.06;2078723;28;40005;-76
2023/02/12 03:56:32;;;;;;;64.57;23.67;;;;;;;-146.25;100.00;52449.31;2071697;28;26828;-76
2023/02/12 03:57:42;;;;;;;57.80;22.45;;;;;;;-146.25;100.00;52465.53;2072406;28;42096;-76
2023/02/12 03:58:45;;;;;;;47.47;21.13;;;;;;;-146.25;100.00;52449.31;2079862;28;20800;-76
2023/02/12 03:59:47;;;;;;;56.50;23.45;;;;;;;-146.25;100.00;52459.44;2079556;28;44310;-76
2023/02/12 04:00:50;;;;;;;61.22;21.27;;;;;;;-146.25;100.00;52441.19;2087154;28;34299;-76
2023/02/12 04:01:56;;;;;;;48.10;19.50;;;;;;;-146.25;100.00;52481.75;2087584;28;32845;-75
2023/02/12 04:02:58;;;;;;;57.53;19.98;;;;;;;-146.25;100.00;52443.22;2087049;28;39482;-76
2023/02/12 04:04:04;;;;;;;59.28;23.33;;;;;;;-146.25;100.00;52439.16;2078828;28;37597;-76
2023/02/12 04:05:14;;;;;;;53.38;22.05;;;;;;;-146.25;100.00;52441.19;2079490;28;39758;-76
2023/02/12 04:06:27;;;;;;;50.85;21.23;;;;;;;-146.25;100.00;52424.97;2086918;28;38878;-76
2023/02/12 04:07:29;;;;;;;62.38;21.67;;;;;;;-146.25;100.00;52396.59;2087674;28;33209;-76
2023/02/12 04:08:31;;;;;;;62.60;22.67;;;;;;;-146.25;100.00;52469.56;2087242;28;40875;-76
2023/02/12 04:09:33;;;;;;;65.10;22.92;;;;;;;-146.25;100.00;52437.13;2078690;28;39144;-76
2023/02/12 04:10:51;;;;;;;50.00;20.40;;;;;;;-146.25;100.00;52443.22;2078996;28;38791;-76
2023/02/12 04:12:30;;;;;;;48.92;20.88;;;;;;;-146.25;100.00;52427.00;2086789;28;37963;-76
2023/02/12 04:13:57;;;;;;;60.78;21.67;;;;;;;-146.25;100.00;52420.91;2079142;28;40441;-75
2023/02/12 04:15:31;;;;;;;68.68;23.23;;;;;;;-146.25;100.00;52435.09;2085402;28;39817;-76
2023/02/12 04:16:55;;;;;;;50.17;20.63;;;;;;;-146.25;100.00;52420.91;2088806;28;42661;-76
2023/02/12 04:18:41;;;;;;;67.40;21.92;;;;;;;-146.25;100.00;52418.88;2088308;28;38071;-76
2023/02/12 04:20:20;;;;;;;58.90;20.55;;;;;;;-146.25;100.00;52479.72;2088984;28;39019;-76
2023/02/12 04:22:13;;;;;;;55.70;21.30;;;;;;;-146.25;100.00;52459.44;2089206;28;36948;-76
2023/02/12 04:23:39;;;;;;;68.05;21.08;;;;;;;-146.25;100.00;52420.91;2089139;28;36360;-76
2023/02/12 04:25:50;;;;;;;61.28;21.33;;;;;;;-146.25;100.00;52451.31;2088144;28;43210;-76
2023/02/12 04:27:15;;;;;;;78.15;21.95;;;;;;;-146.25;100.00;52465.53;2077605;28;37079;-76
2023/02/12 04:28:46;;;;;;;80.05;21.55;;;;;;;-146.25;100.00;52465.53;2089274;28;20053;-76
2023/02/12 04:30:04;;;;;;;;;;;;;;;-146.25;100.00;52459.44;2089387;28;38340;-75
2023/02/12 04:31:30;;;;;;;76.03;22.00;;;;;;;-146.25;100.00;52457.41;2089582;28;19925;-75
2023/02/12 04:33:10;;;;;;;63.45;20.40;;;;;;;-146.25;100.00;52465.53;2088081;28;41107;-76
2023/02/12 04:34:49;;;;;;;69.72;22.20;;;;;;;-146.25;100.00;52424.97;2089772;28;20084;-75
2023/02/12 04:36:05;;;;;;;82.60;22.13;;;;;;;-146.25;100.00;52445.25;2088193;28;39807;-75
2023/02/12 04:37:18;;;;;;;72.95;21.98;;;;;;;-146.25;100.00;52459.44;2079378;28;40318;-75
2023/02/12 04:38:27;;;;;;;81.07;23.45;;;;;;;-146.25;100.00;52461.47;2083377;28;41387;-75
2023/02/12 04:39:39;;;;;;;82.22;23.83;;;;;;;-146.25;100.00;52410.78;2088729;28;20037;-75
2023/02/12 04:40:42;;;;;;;81.95;23.58;;;;;;;-146.25;100.00;52451.31;2079783;28;40423;-75
2023/02/12 04:41:44;;;;;;;77.95;24.83;;;;;;;-146.25;100.00;52420.91;2081165;28;38274;-75
2023/02/12 04:42:52;;;;;;;73.30;23.25;;;;;;;-146.25;100.00;52431.06;2087678;28;40276;-76
2023/02/12 04:43:53;;;;;;;91.28;23.55;;;;;;;-146.25;100.00;52412.81;2088748;28;28860;-76
2023/02/12 04:44:55;;;;;;;89.40;23.63;;;;;;;-146.25;100.00;52441.19;2088742;28;20089;-76
2023/02/12 04:45:57;;;;;;;90.55;23.92;;;;;;;-146.25;100.00;52445.25;2088764;28;40320;-75
2023/02/12 04:46:59;;;;;;;70.45;23.73;;;;;;;-146.25;100.00;52471.59;2088524;28;36614;-75
2023/02/12 04:48:03;;;;;;;83.30;23.95;;;;;;;-146.25;100.00;52473.63;2088631;28;37023;-76
2023/02/12 04:49:05;;;;;;;74.75;22.77;;;;;;;-146.25;100.00;52445.25;2079491;28;40105;-76
2023/02/12 04:50:08;;;;;;;83.82;24.40;;;;;;;-146.25;100.00;52404.69;2080655;28;20049;-76
2023/02/12 04:51:12;;;;;;;69.82;23.70;;;;;;;-146.25;100.00;52467.56;2079935;28;41032;-75
2023/02/12 04:52:14;;;;;;;89.75;25.33;;;;;;;-146.25;100.00;52475.66;2088386;28;20480;-76
2023/02/12 04:53:16;;;;;;;87.03;24.45;;;;;;;-146.25;100.00;52459.44;2087389;28;39778;-75
2023/02/12 04:54:22;;;;;;;93.75;24.67;;;;;;;-146.25;100.00;52477.69;2089382;28;20030;-75
2023/02/12 04:55:23;;;;;;;72.15;24.75;;;;;;;-146.25;100.00;52435.09;2089470;28;20078;-75
2023/02/12 04:56:25;;;;;;;103.95;24.92;;;;;;;-146.25;100.00;52481.75;2088563;28;41261;-76
2023/02/12 04:57:27;;;;;;;65.82;22.83;;;;;;;-146.25;100.00;52461.47;2088309;28;31288;-76
2023/02/12 04:58:28;;;;;;;84.32;24.02;;;;;;;-146.25;100.00;52451.31;2088669;28;37461;-76
2023/02/12 04:59:30;;;;;;;95.22;24.10;;;;;;;-146.25;100.00;52443.22;2088267;28;37345;-75
2023/02/12 05:00:34;;;;;;;110.85;25.65;;;;;;;-146.25;100.00;52447.28;2080353;28;20927;-78
2023/02/12 05:01:37;;;;;;;78.80;22.73;;;;;;;-146.25;100.00;52449.31;2079640;28;43179;-76
2023/02/12 05:02:41;;;;;;;97.82;23.67;;;;;;;-146.25;100.00;52441.19;2088335;28;38383;-76
2023/02/12 05:03:43;;;;;;;90.13;25.05;;;;;;;-146.25;100.00;52461.47;2088160;28;40445;-77
2023/02/12 05:04:44;;;;;;;123.15;26.23;;;;;;;-146.25;100.00;52469.56;2088722;28;37217;-77
2023/02/12 05:05:46;;;;;;;102.30;25.42;;;;;;;-146.25;100.00;52465.53;2088335;28;38372;-75
2023/02/12 05:06:50;;;;;;;92.95;25.63;;;;;;;-146.25;100.00;52461.47;2088541;28;39762;-78
2023/02/12 05:07:52;;;;;;;76.45;24.20;;;;;;;-146.25;100.00;52429.03;2088046;28;39401;-75
2023/02/12 05:08:54;;;;;;;106.35;25.80;;;;;;;-146.25;100.00;52447.28;2084359;28;38037;-77
2023/02/12 05:09:55;;;;;;;86.75;24.30;;;;;;;-146.25;100.00;52455.38;2087432;28;36939;-78
2023/02/12 05:11:02;;;;;;;78.80;23.63;;;;;;;-146.25;100.00;52422.94;2087904;28;41290;-78
2023/02/12 05:12:04;;;;;;;83.93;22.70;;;;;;;-146.25;100.00;52461.47;2079225;28;33609;-78
2023/02/12 05:13:06;;;;;;;87.75;24.13;;;;;;;-146.25;100.00;52424.97;2079979;28;40833;-78
2023/02/12 05:14:09;;;;;;;144.15;25.23;;;;;;;-146.25;100.00;52447.28;2080266;28;20308;-78
2023/02/12 05:15:10;;;;;;;74.63;25.70;;;;;;;-146.25;100.00;52481.75;2079758;28;38394;-78
2023/02/12 05:16:15;;;;;;;81.13;23.95;;;;;;;-146.25;100.00;52451.31;2087791;28;42949;-78